Terminal Aerodrome Forecast
Issued by NWS

Home | Current Version | Previous Version | Text Only | Print | Product List | Glossary On
Versions: 1 2 3 4 5 6 7 8 9 10 11 12 13
000
FTUS46 KPDT 112300
TAFYKM
TAF
KYKM 112320Z 1200/1224 14006KT P6SM SCT250
     FM120300 29008KT P6SM SCT250
     FM121100 27007KT P6SM SCT150 SCT250
     FM121900 13006KT P6SM SCT100 SCT150=

USA.gov is the U.S. government's official web portal to all federal, state and local government web resources and services.